PWSweather.com
Personal Weather Stations
Station Observations
JOE4SPEED
Jupiter, Fl, Jupiter, FL 33458

Jupiter, FlJupiter, FL 33458

Lat: 26.9373, Lon: -80.1101

Elevation: 12

Station Type: Davis VP 2

http://www.joe4speed.com/wxindex.php

Latest ConditionsUpdated 8:20:00 AM EDT Thursday, Jun 29, 2017
Currently Today's Max Today's Min Today's Average
Temperature 80.4°F26.9°C 81.6°F27.6°C 76.6°F24.8°C 79.4°F26.3°C
Dew Point 76.9°F24.9°C 76.9°F24.9°C 72.8°F22.7°C 74.6°F23.7°C
Winds 1.2 mph N1.9 kmh N 3.5 mph E5.6 kmh E - 0.6 mph 1.0 kmh
Wind Gusts 2.3 mph3.7 kmh 4.6 mph7.4 kmh - -
Humidity 89% 89% 80% 85%
Pressure 30.07 in1018.3 mb 30.07 in1018.3 mb 30.03 in1016.9 mb -
Hour Temp Dew Point Humidity Winds Wind Gusts Pressure Precip Precip Rate Daily Precip Total
08:20 AM 80.4°F26.9°C 76.9°F24.9°C 89% 1.2 mph N1.9 kmh N 2.3 mph3.7 kmh 30.07 in1018.3 mb - 0.00 in0.0 mm 0.00 in0.0 mm
08:10 AM 79.9°F26.6°C 76.4°F24.7°C 89% 1.2 mph N1.9 kmh N 3.5 mph5.6 kmh 30.07 in1018.3 mb - 0.00 in0.0 mm 0.00 in0.0 mm
08:00 AM 79.5°F26.4°C 76.0°F24.4°C 89% 1.2 mph N1.9 kmh N 2.3 mph3.7 kmh 30.07 in1018.3 mb - 0.00 in0.0 mm 0.00 in0.0 mm
07:50 AM 79.1°F26.2°C 75.6°F24.2°C 89% Calm Calm 1.2 mph1.9 kmh 30.06 in1017.9 mb - 0.00 in0.0 mm 0.00 in0.0 mm
07:40 AM 78.9°F26.1°C 75.4°F24.1°C 89% 1.2 mph NNW1.9 kmh NNW 2.3 mph3.7 kmh 30.06 in1017.9 mb - 0.00 in0.0 mm 0.00 in0.0 mm
07:30 AM 78.6°F25.9°C 75.1°F23.9°C 89% 2.3 mph NW3.7 kmh NW 4.6 mph7.4 kmh 30.06 in1017.9 mb - 0.00 in0.0 mm 0.00 in0.0 mm
07:20 AM 77.6°F25.3°C 74.1°F23.4°C 89% Calm Calm -- 30.05 in1017.6 mb - 0.00 in0.0 mm 0.00 in0.0 mm
07:10 AM 77.1°F25.1°C 73.6°F23.1°C 89% Calm Calm 1.2 mph1.9 kmh 30.05 in1017.6 mb - 0.00 in0.0 mm 0.00 in0.0 mm
07:00 AM 77.0°F25.0°C 73.5°F23.1°C 89% Calm Calm -- 30.05 in1017.6 mb - 0.00 in0.0 mm 0.00 in0.0 mm
06:50 AM 76.8°F24.9°C 73.3°F22.9°C 89% Calm Calm -- 30.05 in1017.6 mb - 0.00 in0.0 mm 0.00 in0.0 mm
06:40 AM 76.6°F24.8°C 72.8°F22.7°C 88% Calm Calm -- 30.04 in1017.3 mb - 0.00 in0.0 mm 0.00 in0.0 mm
06:30 AM 76.7°F24.8°C 72.9°F22.7°C 88% Calm Calm -- 30.04 in1017.3 mb - 0.00 in0.0 mm 0.00 in0.0 mm
06:20 AM 76.9°F24.9°C 73.1°F22.8°C 88% Calm Calm -- 30.04 in1017.3 mb - 0.00 in0.0 mm 0.00 in0.0 mm
06:10 AM 77.2°F25.1°C 73.4°F23.0°C 88% Calm Calm -- 30.04 in1017.3 mb - 0.00 in0.0 mm 0.00 in0.0 mm
06:00 AM 77.3°F25.2°C 73.5°F23.1°C 88% Calm Calm -- 30.04 in1017.3 mb - 0.00 in0.0 mm 0.00 in0.0 mm
05:50 AM 77.6°F25.3°C 73.8°F23.2°C 88% Calm Calm -- 30.04 in1017.3 mb - 0.00 in0.0 mm 0.00 in0.0 mm
05:40 AM 77.8°F25.4°C 74.0°F23.3°C 88% Calm Calm -- 30.03 in1016.9 mb - 0.00 in0.0 mm 0.00 in0.0 mm
05:30 AM 78.0°F25.6°C 74.2°F23.4°C 88% Calm Calm -- 30.03 in1016.9 mb - 0.00 in0.0 mm 0.00 in0.0 mm
05:20 AM 78.0°F25.6°C 73.8°F23.2°C 87% Calm Calm -- 30.03 in1016.9 mb - 0.00 in0.0 mm 0.00 in0.0 mm
05:10 AM 78.3°F25.7°C 74.1°F23.4°C 87% Calm Calm -- 30.03 in1016.9 mb - 0.00 in0.0 mm 0.00 in0.0 mm
05:00 AM 78.3°F25.7°C 74.1°F23.4°C 87% Calm Calm -- 30.03 in1016.9 mb - 0.00 in0.0 mm 0.00 in0.0 mm
04:50 AM 78.5°F25.8°C 74.3°F23.5°C 87% Calm Calm -- 30.03 in1016.9 mb - 0.00 in0.0 mm 0.00 in0.0 mm
04:40 AM 78.7°F25.9°C 74.5°F23.6°C 87% Calm Calm -- 30.03 in1016.9 mb - 0.00 in0.0 mm 0.00 in0.0 mm
04:30 AM 79.1°F26.2°C 74.9°F23.8°C 87% Calm Calm -- 30.03 in1016.9 mb - 0.00 in0.0 mm 0.00 in0.0 mm
04:20 AM 79.3°F26.3°C 75.1°F23.9°C 87% Calm Calm 1.2 mph1.9 kmh 30.04 in1017.3 mb - 0.00 in0.0 mm 0.00 in0.0 mm
04:10 AM 79.5°F26.4°C 74.9°F23.8°C 86% Calm Calm -- 30.04 in1017.3 mb - 0.00 in0.0 mm 0.00 in0.0 mm
04:00 AM 79.6°F26.4°C 75.1°F23.9°C 86% Calm Calm -- 30.04 in1017.3 mb - 0.00 in0.0 mm 0.00 in0.0 mm
03:50 AM 79.5°F26.4°C 74.6°F23.7°C 85% Calm Calm -- 30.04 in1017.3 mb - 0.00 in0.0 mm 0.00 in0.0 mm
03:40 AM 79.7°F26.5°C 74.8°F23.8°C 85% Calm Calm -- 30.04 in1017.3 mb - 0.00 in0.0 mm 0.00 in0.0 mm
03:30 AM 79.9°F26.6°C 75.0°F23.9°C 85% Calm Calm -- 30.04 in1017.3 mb - 0.00 in0.0 mm 0.00 in0.0 mm
03:20 AM 80.1°F26.7°C 75.2°F24.0°C 85% Calm Calm -- 30.04 in1017.3 mb - 0.00 in0.0 mm 0.00 in0.0 mm
03:10 AM 80.2°F26.8°C 74.9°F23.8°C 84% 2.3 mph N3.7 kmh N 3.5 mph5.6 kmh 30.04 in1017.3 mb - 0.00 in0.0 mm 0.00 in0.0 mm
03:00 AM 80.0°F26.7°C 74.4°F23.6°C 83% Calm Calm -- 30.03 in1016.9 mb - 0.00 in0.0 mm 0.00 in0.0 mm
02:50 AM 80.2°F26.8°C 74.2°F23.4°C 82% Calm Calm -- 30.03 in1016.9 mb - 0.00 in0.0 mm 0.00 in0.0 mm
02:40 AM 80.4°F26.9°C 74.4°F23.6°C 82% Calm Calm -- 30.03 in1016.9 mb - 0.00 in0.0 mm 0.00 in0.0 mm
02:30 AM 80.6°F27.0°C 74.6°F23.7°C 82% 1.2 mph SE1.9 kmh SE 2.3 mph3.7 kmh 30.03 in1016.9 mb - 0.00 in0.0 mm 0.00 in0.0 mm
02:20 AM 80.6°F27.0°C 74.6°F23.7°C 82% 1.2 mph SE1.9 kmh SE 2.3 mph3.7 kmh 30.04 in1017.3 mb - 0.00 in0.0 mm 0.00 in0.0 mm
02:10 AM 80.6°F27.0°C 74.6°F23.7°C 82% 2.3 mph SE3.7 kmh SE 3.5 mph5.6 kmh 30.04 in1017.3 mb - 0.00 in0.0 mm 0.00 in0.0 mm
02:00 AM 80.5°F26.9°C 74.5°F23.6°C 82% Calm Calm 2.3 mph3.7 kmh 30.04 in1017.3 mb - 0.00 in0.0 mm 0.00 in0.0 mm
01:50 AM 80.7°F27.1°C 74.7°F23.7°C 82% 1.2 mph E1.9 kmh E 1.2 mph1.9 kmh 30.04 in1017.3 mb - 0.00 in0.0 mm 0.00 in0.0 mm
01:40 AM 80.9°F27.2°C 74.9°F23.8°C 82% Calm Calm 1.2 mph1.9 kmh 30.05 in1017.6 mb - 0.00 in0.0 mm 0.00 in0.0 mm
01:30 AM 81.0°F27.2°C 74.9°F23.8°C 82% Calm Calm -- 30.05 in1017.6 mb - 0.00 in0.0 mm 0.00 in0.0 mm
01:20 AM 81.0°F27.2°C 74.6°F23.7°C 81% 1.2 mph E1.9 kmh E -- 30.05 in1017.6 mb - 0.00 in0.0 mm 0.00 in0.0 mm
01:10 AM 81.1°F27.3°C 74.7°F23.7°C 81% 2.3 mph E3.7 kmh E 3.5 mph5.6 kmh 30.05 in1017.6 mb - 0.00 in0.0 mm 0.00 in0.0 mm
01:00 AM 81.3°F27.4°C 74.9°F23.8°C 81% Calm Calm -- 30.05 in1017.6 mb - 0.00 in0.0 mm 0.00 in0.0 mm
12:50 AM 81.4°F27.4°C 75.0°F23.9°C 81% 1.2 mph E1.9 kmh E 2.3 mph3.7 kmh 30.05 in1017.6 mb - 0.00 in0.0 mm 0.00 in0.0 mm
12:40 AM 81.5°F27.5°C 75.1°F23.9°C 81% 2.3 mph E3.7 kmh E 2.3 mph3.7 kmh 30.05 in1017.6 mb - 0.00 in0.0 mm 0.00 in0.0 mm
12:30 AM 81.6°F27.6°C 75.2°F24.0°C 81% 1.2 mph E1.9 kmh E 3.5 mph5.6 kmh 30.06 in1017.9 mb - 0.00 in0.0 mm 0.00 in0.0 mm
12:20 AM 81.5°F27.5°C 75.1°F23.9°C 81% 2.3 mph E3.7 kmh E 3.5 mph5.6 kmh 30.06 in1017.9 mb - 0.00 in0.0 mm 0.00 in0.0 mm
12:10 AM 81.4°F27.4°C 74.6°F23.7°C 80% 3.5 mph E5.6 kmh E 3.5 mph5.6 kmh 30.06 in1017.9 mb - 0.00 in0.0 mm 0.00 in0.0 mm
12:00 AM 81.4°F27.4°C 74.6°F23.7°C 80% 1.2 mph E1.9 kmh E 2.3 mph3.7 kmh 30.06 in1017.9 mb - 0.00 in0.0 mm 0.00 in0.0 mm